Bookmark and Share
Track history (hours):
 

Callsign ORUW (name unknown)

Last reported at 2012-Jul-09 07:28 UTC. Time now 2014-Apr-23 13:16 UTC.
Position N 27°30' W 015°26'.
Warning: this ship's position is years out of date!

NotesDate/timePositionNaut miles runAvg speedWind from/ knotsBaromVisibWave heightAir tempDewpointWater temp
2012-Jul-09 07:28N 27°30' W 015°26'1010.8
2012-Jul-09 06:33N 27°39' W 015°22'1111.2
2012-Jul-09 05:33N 27°50' W 015°17'1010.9
2012-Jul-09 04:36N 28°00' W 015°18'10 9.8
2012-Jul-09 03:33N 28°08' W 015°25'1 0.6
2012-Jul-09 02:33N 28°09' W 015°25'0 0.0
2012-Jul-09 01:33N 28°09' W 015°25'0 0.0
2012-Jul-09 00:33N 28°09' W 015°25'0 0.0
2012-Jul-08 23:33N 28°09' W 015°25'0 0.0
2012-Jul-08 22:33N 28°09' W 015°25'0 0.0
2012-Jul-08 21:33N 28°09' W 015°25'0 0.0
2012-Jul-08 20:33N 28°09' W 015°25'0 0.0
2012-Jul-08 19:33N 28°09' W 015°25'0 0.0
2012-Jul-08 18:33N 28°09' W 015°25'0 0.0
2012-Jul-08 17:33N 28°09' W 015°25'0 0.0
2012-Jul-08 16:27N 28°09' W 015°25'0 0.0
2012-Jul-08 15:33N 28°09' W 015°25'0 0.0
2012-Jul-08 14:33N 28°09' W 015°25'0 0.0
2012-Jul-08 13:33N 28°09' W 015°25'0 0.0
2012-Jul-08 12:33N 28°09' W 015°25'0 0.0
2012-Jul-08 11:33N 28°09' W 015°25'0 0.0
2012-Jul-08 10:33N 28°09' W 015°25'0 0.0
2012-Jul-08 09:33N 28°09' W 015°25'0 0.0
2012-Jul-08 08:33N 28°09' W 015°25'1 1.3
2012-Jul-08 07:33N 28°07' W 015°25'1010.0
2012-Jul-08 06:33N 28°15' W 015°18'  
2012-Jul-05 20:33N 37°33' W 009°34'1211.9
2012-Jul-05 19:33N 37°43' W 009°28'1212.1
2012-Jul-05 18:33N 37°54' W 009°20'1211.7
2012-Jul-05 17:33N 38°04' W 009°14'1111.1
2012-Jul-05 16:32N 38°14' W 009°07'1111.5
2012-Jul-05 15:33N 38°24' W 009°00'8 8.0
2012-Jul-05 14:33N 38°29' W 008°52'4 4.2
2012-Jul-05 13:32N 38°28' W 008°47'2 1.8
2012-Jul-05 12:33N 38°28' W 008°49'3 2.8
2012-Jul-05 11:33N 38°29' W 008°52'4 4.0
2012-Jul-05 10:35N 38°28' W 008°48'0 0.1
2012-Jul-05 04:35N 38°28' W 008°47'0 0.0
2012-Jul-03 15:33N 38°28' W 008°47'0 0.0
2012-Jul-03 14:33N 38°28' W 008°47'0 0.0
2012-Jul-03 13:33N 38°28' W 008°47'0 0.0
2012-Jul-03 12:33N 38°28' W 008°47'0 0.0
2012-Jul-03 11:33N 38°28' W 008°47'0 0.0
2012-Jul-03 09:28N 38°28' W 008°47'0 0.0
2012-Jul-03 08:33N 38°28' W 008°47'0 0.0
2012-Jul-03 07:33N 38°28' W 008°47'0 0.0
2012-Jul-03 04:36N 38°28' W 008°47'0 0.0
2012-Jul-03 03:33N 38°28' W 008°47'0 0.0
2012-Jul-03 02:33N 38°28' W 008°47'0 0.0
2012-Jul-03 01:32N 38°28' W 008°47'0 0.0
2012-Jul-03 00:34N 38°28' W 008°47'0 0.0
2012-Jul-02 23:31N 38°28' W 008°47'0 0.0
2012-Jul-02 22:33N 38°28' W 008°47'0 0.0
2012-Jul-02 21:33N 38°28' W 008°47'0 0.0
2012-Jul-02 20:32N 38°28' W 008°47'0 0.0
2012-Jul-02 19:33N 38°28' W 008°47'0 0.0
2012-Jul-02 18:33N 38°28' W 008°47'0 0.0
2012-Jul-02 17:33N 38°28' W 008°47'0 0.0
2012-Jul-02 16:33N 38°28' W 008°47'0 0.0
2012-Jul-02 15:33N 38°28' W 008°47'0 0.0
2012-Jul-02 14:33N 38°28' W 008°47'0 0.0
2012-Jul-02 13:33N 38°28' W 008°47'0 0.0
2012-Jul-02 12:30N 38°28' W 008°47'0 0.0
2012-Jul-02 11:32N 38°28' W 008°47'0 0.0
2012-Jul-02 10:34N 38°28' W 008°47'0 0.0
2012-Jul-02 09:32N 38°28' W 008°47'0 0.0
2012-Jul-02 06:33N 38°28' W 008°47'0 0.0
2012-Jul-02 03:25N 38°28' W 008°47'0 0.0
2012-Jul-02 02:33N 38°28' W 008°47'0 0.0
2012-Jul-02 01:31N 38°28' W 008°47'0 0.0
2012-Jul-02 00:31N 38°28' W 008°47'0 0.0
2012-Jul-01 23:33N 38°28' W 008°47'0 0.0
2012-Jul-01 22:31N 38°28' W 008°47'0 0.0
2012-Jul-01 21:33N 38°28' W 008°47'0 0.0
2012-Jul-01 20:33N 38°28' W 008°47'0 0.0
2012-Jul-01 19:33N 38°28' W 008°47'0 0.0
2012-Jul-01 18:32N 38°28' W 008°47'0 0.0
2012-Jul-01 17:33N 38°28' W 008°47'0 0.0
2012-Jul-01 16:33N 38°28' W 008°47'0 0.0
2012-Jul-01 15:33N 38°28' W 008°47'0 0.0
2012-Jul-01 14:33N 38°28' W 008°47'0 0.0
2012-Jul-01 13:33N 38°28' W 008°47'0 0.0
2012-Jul-01 12:32N 38°28' W 008°47'0 0.0
2012-Jul-01 11:33N 38°28' W 008°47'0 0.0
2012-Jul-01 10:33N 38°28' W 008°47'0 0.0
2012-Jul-01 09:27N 38°28' W 008°47'0 0.0
2012-Jul-01 07:33N 38°28' W 008°47'0 0.0
2012-Jun-30 22:32N 38°28' W 008°47'0 0.0
2012-Jun-30 21:32N 38°28' W 008°47'0 0.0
2012-Jun-30 20:33N 38°28' W 008°47'0 0.0
2012-Jun-30 19:33N 38°28' W 008°47'0 0.0
2012-Jun-30 18:34N 38°28' W 008°47'0 0.0
2012-Jun-30 17:33N 38°28' W 008°47'0 0.0
2012-Jun-30 16:33N 38°28' W 008°47'0 0.0
2012-Jun-30 15:33N 38°28' W 008°47'0 0.0
2012-Jun-30 14:33N 38°28' W 008°47'0 0.0
2012-Jun-30 13:34N 38°28' W 008°47'0 0.0
2012-Jun-30 12:33N 38°28' W 008°47'0 0.0
2012-Jun-30 10:33N 38°28' W 008°47'0 0.0
2012-Jun-30 09:33N 38°28' W 008°47'0 0.0
2012-Jun-30 08:33N 38°28' W 008°47'0 0.0
2012-Jun-30 07:30N 38°28' W 008°47'0 0.0
2012-Jun-30 06:28N 38°28' W 008°47'0 0.0
2012-Jun-30 05:33N 38°28' W 008°47'0 0.0
2012-Jun-30 04:35N 38°28' W 008°47'0 0.0
2012-Jun-30 03:33N 38°28' W 008°47'0 0.0
2012-Jun-30 02:32N 38°28' W 008°47'0 0.0
2012-Jun-30 01:32N 38°28' W 008°47'0 0.0
2012-Jun-30 00:33N 38°28' W 008°47'0 0.0
2012-Jun-29 23:32N 38°28' W 008°47'0 0.0
2012-Jun-29 22:33N 38°28' W 008°47'0 0.0
2012-Jun-29 21:33N 38°28' W 008°47'0 0.0
2012-Jun-29 20:33N 38°28' W 008°47'0 0.0
2012-Jun-29 19:33N 38°28' W 008°47'0 0.0
2012-Jun-29 18:33N 38°28' W 008°47'0 0.0
2012-Jun-29 17:33N 38°28' W 008°47'0 0.0
2012-Jun-29 16:33N 38°28' W 008°47'0 0.0
2012-Jun-29 15:30N 38°28' W 008°47'0 0.0
2012-Jun-29 14:33N 38°28' W 008°47'0 0.0
2012-Jun-29 13:33N 38°28' W 008°47'0 0.0
2012-Jun-29 12:33N 38°28' W 008°47'0 0.0
2012-Jun-29 11:32N 38°28' W 008°47'0 0.0
2012-Jun-29 10:33N 38°28' W 008°47'0 0.0
2012-Jun-29 09:33N 38°28' W 008°47'0 0.0
2012-Jun-29 08:33N 38°28' W 008°47'0 0.0
2012-Jun-29 07:33N 38°28' W 008°47'  

Dump ship's entire track history

sailing weather and tide predictions

Ship Status Report: callsign ORUW